createdAt,value
2023-01-20T00:06:28.473Z,65.84
2023-01-20T00:16:32.937Z,65.94
2023-01-20T00:26:36.687Z,66.75
2023-01-20T00:36:40.722Z,67.05
2023-01-20T00:46:46.388Z,67.09
2023-01-20T00:56:50.204Z,66.46
2023-01-20T01:06:54.224Z,66.15
2023-01-20T01:16:57.985Z,65.84
2023-01-20T01:27:01.667Z,65.57
2023-01-20T01:37:05.392Z,66.17
2023-01-20T01:47:10.345Z,66.41
2023-01-20T01:57:14.255Z,66.74
2023-01-20T02:07:21.694Z,66.55
2023-01-20T02:17:34.211Z,66.12
2023-01-20T02:27:56.563Z,66.12
2023-01-20T02:38:15.627Z,65.80
2023-01-20T02:48:19.445Z,65.61
2023-01-20T02:58:40.680Z,65.43
2023-01-20T03:08:46.590Z,65.37
2023-01-20T03:18:51.871Z,65.18
2023-01-20T03:28:56.059Z,65.14
2023-01-20T03:39:00.787Z,65.54
2023-01-20T03:49:23.189Z,65.95
2023-01-20T03:59:27.989Z,67.10
2023-01-20T04:09:47.760Z,67.82
2023-01-20T04:19:51.668Z,68.16
2023-01-20T04:29:55.501Z,68.97
2023-01-20T04:39:59.556Z,69.17
2023-01-20T04:50:09.104Z,68.52
2023-01-20T05:00:18.825Z,67.55
2023-01-20T05:10:22.822Z,66.99
2023-01-20T05:20:26.705Z,66.33
2023-01-20T05:30:30.510Z,66.18
2023-01-20T05:40:35.535Z,66.13
2023-01-20T05:50:39.319Z,66.44
2023-01-20T06:00:43.102Z,65.98
2023-01-20T06:10:50.580Z,65.59
2023-01-20T06:20:59.124Z,65.27
2023-01-20T06:31:05.916Z,64.90
2023-01-20T06:41:11.519Z,64.27
2023-01-20T06:51:17.918Z,63.97
2023-01-20T07:01:27.444Z,63.95
2023-01-20T07:11:31.757Z,63.94
2023-01-20T07:21:35.528Z,63.68
2023-01-20T07:31:40.661Z,63.43
2023-01-20T07:41:49.103Z,63.59
2023-01-20T07:51:52.910Z,63.05
2023-01-20T08:01:57.051Z,62.85
2023-01-20T08:12:02.464Z,62.75
2023-01-20T08:22:07.254Z,62.25
2023-01-20T08:32:11.001Z,61.88
2023-01-20T08:42:14.835Z,61.80
2023-01-20T08:52:19.218Z,61.47
2023-01-20T09:02:24.978Z,61.15
2023-01-20T09:12:28.750Z,60.43
2023-01-20T09:22:34.385Z,60.71
2023-01-20T09:32:38.624Z,61.58
2023-01-20T09:43:14.968Z,61.82
2023-01-20T09:53:26.015Z,60.91
2023-01-20T10:03:42.494Z,60.51
2023-01-20T10:13:56.634Z,61.03
2023-01-20T10:24:29.754Z,62.84
2023-01-20T10:34:54.918Z,63.63
2023-01-20T10:45:01.228Z,63.35
2023-01-20T10:55:22.217Z,62.50
2023-01-20T11:05:30.859Z,62.71
2023-01-20T11:15:38.540Z,62.28
2023-01-20T11:25:55.538Z,61.64
2023-01-20T11:36:01.102Z,61.24
2023-01-20T11:46:30.291Z,62.01
2023-01-20T11:56:43.066Z,63.03
2023-01-20T12:07:05.816Z,64.40
2023-01-20T12:17:31.938Z,65.05
2023-01-20T12:27:53.852Z,65.78
2023-01-20T12:38:06.447Z,66.13
2023-01-20T12:48:25.579Z,66.16
2023-01-20T12:58:44.357Z,65.77
2023-01-20T13:09:23.255Z,65.96
2023-01-20T13:19:49.724Z,66.09
2023-01-20T13:29:59.089Z,66.23
2023-01-20T13:40:06.006Z,66.59
2023-01-20T13:50:24.148Z,66.17
2023-01-20T14:00:27.906Z,66.37
2023-01-20T14:10:31.617Z,66.97
2023-01-20T14:20:37.940Z,68.08
2023-01-20T14:30:41.865Z,68.20
2023-01-20T14:40:51.775Z,68.56
2023-01-20T14:50:57.105Z,69.08
2023-01-20T15:01:06.977Z,70.29
2023-01-20T15:11:17.301Z,71.15
2023-01-20T15:21:28.323Z,71.55
2023-01-20T15:31:32.188Z,71.90
2023-01-20T15:41:36.306Z,72.16
2023-01-20T15:51:40.754Z,71.88
2023-01-20T16:01:50.401Z,71.61
2023-01-20T16:11:54.779Z,71.37
2023-01-20T16:21:58.853Z,71.37
2023-01-20T16:32:04.819Z,71.30
2023-01-20T16:42:16.230Z,71.12
2023-01-20T16:52:20.137Z,70.83
2023-01-20T17:02:24.585Z,70.67
2023-01-20T17:12:28.617Z,70.70
2023-01-20T17:22:32.940Z,70.47
2023-01-20T17:32:39.547Z,70.44
2023-01-20T17:42:44.473Z,70.65
2023-01-20T17:52:48.488Z,70.87
2023-01-20T18:02:55.797Z,71.70
2023-01-20T18:12:59.720Z,72.30
2023-01-20T18:23:03.545Z,72.47
2023-01-20T18:33:07.743Z,72.57
2023-01-20T18:43:11.821Z,72.72
2023-01-20T18:53:15.863Z,72.60
2023-01-20T19:03:20.586Z,72.67
2023-01-20T19:13:24.905Z,72.79
2023-01-20T19:23:29.863Z,72.79
2023-01-20T19:33:36.369Z,72.65
2023-01-20T19:43:40.740Z,73.00
2023-01-20T19:53:45.358Z,73.26
2023-01-20T20:03:50.943Z,73.25
2023-01-20T20:14:05.545Z,73.64
2023-01-20T20:24:12.745Z,74.27
2023-01-20T20:34:19.567Z,74.44
2023-01-20T20:44:24.609Z,75.00
2023-01-20T20:54:28.745Z,75.67
2023-01-20T21:04:32.914Z,75.57
2023-01-20T21:14:37.353Z,75.43
2023-01-20T21:24:42.177Z,75.54
2023-01-20T21:34:46.677Z,75.37
2023-01-20T21:44:51.260Z,75.68
2023-01-20T21:54:56.027Z,75.39
2023-01-20T22:05:14.710Z,75.28
2023-01-20T22:15:19.255Z,75.44
2023-01-20T22:25:23.569Z,75.15
2023-01-20T22:35:27.406Z,75.21
2023-01-20T22:45:31.373Z,75.29
2023-01-20T22:55:35.143Z,75.29
2023-01-20T23:05:40.858Z,75.58
2023-01-20T23:15:45.149Z,75.73
2023-01-20T23:25:48.849Z,75.41
2023-01-20T23:35:52.744Z,75.39
2023-01-20T23:46:01.297Z,75.63
2023-01-20T23:56:08.197Z,75.63
